Portada
METAR-TAF:

METAR-TAF

Aeroports :

Jendouba, Tunísia

latitud: 36-29N, longitud: 008-48E, altitud: 143 m

Observació

L'informe es va fer fa 26 minuts, a les 02:00 UTC
Vent calma
Temperatura 21°C
Humitat 64%
Pressió 1014 hPa
Visibilitat: 8000 m
Escasses núvols a una alçada de 2000 ft

METAR: DTTN 160200Z 00000KT 8000 FEW020 21/14 Q1014

Hora: 03:26 (02:26 UTC)


TAF: manca

Observacions i pronòstics meteorològics de més de 4000 aeroports (METAR i TAF).

Les estacions disponibles són els punts grocs i vermells al mapa.

Posi el ratolí al punt desitjat per veure el nom de l'estació.

Feu clic per veure les observacions i els pronòstics meteorològics.

Per canviar el mapa: feu clic els botons verds amb una creu de color negre per apropar; al botó verd amb un guió per allunyar la imatge; o en les fletxes verdes per a mapes adjacents.


METAR-TAF: